createdAt,value
2023-01-03T00:00:18.385Z,94.06
2023-01-03T00:01:18.258Z,94.06
2023-01-03T00:02:18.360Z,94.06
2023-01-03T00:03:18.283Z,94.17
2023-01-03T00:04:18.332Z,94.06
2023-01-03T00:05:18.296Z,93.96
2023-01-03T00:06:18.265Z,93.96
2023-01-03T00:07:18.216Z,93.96
2023-01-03T00:08:18.213Z,93.96
2023-01-03T00:09:18.172Z,93.96
2023-01-03T00:10:18.221Z,94.06
2023-01-03T00:11:18.351Z,94.06
2023-01-03T00:12:18.133Z,93.96
2023-01-03T00:13:18.149Z,93.96
2023-01-03T00:14:18.131Z,93.85
2023-01-03T00:15:18.122Z,93.96
2023-01-03T00:16:18.502Z,93.96
2023-01-03T00:17:18.165Z,93.96
2023-01-03T00:18:18.090Z,93.96
2023-01-03T00:19:18.082Z,93.96
2023-01-03T00:20:18.052Z,93.96
2023-01-03T00:21:18.075Z,94.06
2023-01-03T00:22:18.051Z,94.06
2023-01-03T00:23:18.059Z,94.17
2023-01-03T00:24:18.011Z,94.06
2023-01-03T00:25:18.021Z,94.06
2023-01-03T00:26:17.972Z,94.06
2023-01-03T00:27:17.993Z,94.06
2023-01-03T00:28:18.019Z,94.06
2023-01-03T00:29:17.984Z,94.17
2023-01-03T00:30:17.979Z,94.27
2023-01-03T00:31:18.013Z,94.27
2023-01-03T00:32:17.937Z,94.17
2023-01-03T00:33:17.939Z,94.17
2023-01-03T00:34:17.925Z,94.17
2023-01-03T00:35:17.908Z,94.17
2023-01-03T00:36:17.859Z,94.17
2023-01-03T00:37:17.885Z,94.06
2023-01-03T00:38:18.019Z,93.96
2023-01-03T00:39:17.891Z,93.96
2023-01-03T00:40:17.819Z,94.00
2023-01-03T00:41:17.852Z,94.00
2023-01-03T00:42:17.811Z,94.10
2023-01-03T00:43:17.845Z,94.21
2023-01-03T00:44:17.783Z,94.31
2023-01-03T00:45:20.369Z,94.42
2023-01-03T00:46:17.913Z,94.52
2023-01-03T00:47:17.796Z,94.62
2023-01-03T00:48:17.746Z,94.72
2023-01-03T00:49:17.762Z,94.82
2023-01-03T00:50:17.720Z,94.97
2023-01-03T00:51:17.734Z,94.97
2023-01-03T00:52:17.820Z,94.97
2023-01-03T00:53:17.713Z,95.07
2023-01-03T00:54:17.681Z,95.07
2023-01-03T00:55:17.729Z,95.07
2023-01-03T00:56:17.672Z,95.07
2023-01-03T00:57:17.652Z,94.97
2023-01-03T00:58:17.647Z,94.97
2023-01-03T00:59:17.760Z,94.97
2023-01-03T01:00:17.612Z,95.07
2023-01-03T01:01:17.780Z,95.07
2023-01-03T01:02:17.709Z,95.18
2023-01-03T01:03:17.963Z,95.14
2023-01-03T01:04:17.562Z,95.14
2023-01-03T01:05:17.597Z,95.14
2023-01-03T01:06:17.710Z,95.14
2023-01-03T01:07:17.551Z,95.14
2023-01-03T01:08:17.518Z,95.03
2023-01-03T01:09:17.529Z,95.03
2023-01-03T01:10:17.498Z,95.03
2023-01-03T01:11:17.497Z,95.03
2023-01-03T01:12:17.491Z,95.03
2023-01-03T01:13:17.484Z,94.93
2023-01-03T01:14:17.462Z,94.93
2023-01-03T01:15:17.459Z,94.93
2023-01-03T01:16:17.450Z,95.03
2023-01-03T01:17:22.427Z,95.03
2023-01-03T01:18:18.417Z,95.03
2023-01-03T01:19:17.902Z,94.93
2023-01-03T01:20:17.380Z,94.93
2023-01-03T01:21:17.388Z,94.93
2023-01-03T01:22:17.350Z,94.93
2023-01-03T01:23:17.378Z,94.82
2023-01-03T01:24:18.289Z,94.82
2023-01-03T01:25:17.338Z,94.82
2023-01-03T01:26:17.318Z,94.72
2023-01-03T01:27:17.326Z,94.77
2023-01-03T01:28:17.310Z,94.77
2023-01-03T01:29:17.307Z,94.77
2023-01-03T01:30:17.267Z,94.87
2023-01-03T01:31:17.345Z,94.87
2023-01-03T01:32:17.227Z,94.97
2023-01-03T01:33:17.237Z,94.97
2023-01-03T01:34:17.223Z,94.87
2023-01-03T01:35:17.226Z,94.87
2023-01-03T01:36:17.191Z,94.87
2023-01-03T01:37:17.197Z,94.87
2023-01-03T01:38:17.528Z,94.87
2023-01-03T01:39:17.519Z,94.77
2023-01-03T01:40:17.158Z,94.77
2023-01-03T01:41:17.164Z,94.87
2023-01-03T01:42:20.297Z,94.87
2023-01-03T01:43:17.127Z,94.97
2023-01-03T01:44:17.119Z,95.07
2023-01-03T01:45:17.114Z,95.07
2023-01-03T01:46:17.186Z,95.07
2023-01-03T01:47:17.086Z,95.07
2023-01-03T01:48:17.075Z,95.07
2023-01-03T01:49:17.068Z,95.07
2023-01-03T01:50:17.035Z,95.07
2023-01-03T01:51:17.046Z,95.07
2023-01-03T01:52:17.030Z,95.07
2023-01-03T01:53:17.016Z,95.07
2023-01-03T01:54:17.035Z,95.18
2023-01-03T01:55:17.009Z,95.07
2023-01-03T01:56:16.958Z,95.18
2023-01-03T01:57:16.976Z,95.07
2023-01-03T01:58:16.961Z,95.07
2023-01-03T01:59:16.997Z,95.18
2023-01-03T02:00:16.935Z,95.18
2023-01-03T02:01:17.232Z,95.18
2023-01-03T02:02:17.068Z,95.18
2023-01-03T02:03:16.987Z,95.18
2023-01-03T02:04:16.868Z,95.18
2023-01-03T02:05:16.891Z,95.18
2023-01-03T02:06:16.878Z,95.18
2023-01-03T02:07:16.872Z,95.18
2023-01-03T02:08:16.821Z,95.28
2023-01-03T02:09:16.863Z,95.28
2023-01-03T02:10:16.795Z,95.22
2023-01-03T02:11:16.810Z,95.22
2023-01-03T02:12:16.780Z,95.12
2023-01-03T02:13:16.827Z,95.12
2023-01-03T02:14:16.766Z,95.12
2023-01-03T02:15:16.757Z,95.02
2023-01-03T02:16:16.790Z,94.92
2023-01-03T02:17:16.981Z,94.92
2023-01-03T02:18:16.712Z,94.92
2023-01-03T02:19:16.756Z,94.92
2023-01-03T02:20:16.788Z,94.92
2023-01-03T02:21:19.935Z,94.92
2023-01-03T02:22:16.668Z,95.02
2023-01-03T02:23:16.687Z,94.92
2023-01-03T02:24:16.654Z,94.92
2023-01-03T02:25:16.646Z,94.92
2023-01-03T02:26:16.615Z,94.92
2023-01-03T02:27:16.635Z,94.81
2023-01-03T02:28:16.600Z,94.81
2023-01-03T02:29:16.609Z,94.71
2023-01-03T02:30:16.583Z,94.71
2023-01-03T02:31:16.641Z,94.60
2023-01-03T02:32:16.552Z,94.60
2023-01-03T02:33:16.571Z,94.60
2023-01-03T02:34:16.568Z,94.60
2023-01-03T02:35:16.562Z,94.50
2023-01-03T02:36:16.514Z,94.40
2023-01-03T02:37:16.514Z,94.40
2023-01-03T02:38:16.481Z,94.40
2023-01-03T02:39:20.522Z,94.40
2023-01-03T02:40:17.492Z,94.40
2023-01-03T02:41:16.492Z,94.29
2023-01-03T02:42:16.444Z,94.19
2023-01-03T02:43:16.443Z,94.09
2023-01-03T02:44:16.429Z,94.09
2023-01-03T02:45:16.433Z,94.09
2023-01-03T02:46:16.455Z,93.98
2023-01-03T02:47:16.406Z,93.98
2023-01-03T02:48:16.396Z,93.98
2023-01-03T02:49:16.373Z,93.98
2023-01-03T02:50:16.343Z,93.88
2023-01-03T02:51:16.360Z,93.78
2023-01-03T02:52:16.364Z,93.68
2023-01-03T02:53:16.365Z,93.47
2023-01-03T02:54:16.302Z,93.37
2023-01-03T02:55:16.314Z,93.37
2023-01-03T02:56:16.290Z,93.47
2023-01-03T02:57:16.322Z,93.16
2023-01-03T02:58:16.256Z,93.05
2023-01-03T02:59:16.294Z,93.05
2023-01-03T03:00:16.273Z,93.05
2023-01-03T03:01:16.285Z,93.05
2023-01-03T03:02:16.324Z,93.16
2023-01-03T03:03:16.412Z,93.16
2023-01-03T03:04:16.201Z,93.16
2023-01-03T03:05:16.206Z,92.85
2023-01-03T03:06:16.159Z,92.74
2023-01-03T03:07:16.199Z,92.85
2023-01-03T03:08:16.170Z,92.74
2023-01-03T03:09:16.145Z,92.54
2023-01-03T03:10:16.115Z,92.23
2023-01-03T03:11:16.135Z,92.13
2023-01-03T03:12:16.110Z,92.13
2023-01-03T03:13:16.161Z,92.13
2023-01-03T03:14:16.115Z,92.23
2023-01-03T03:15:16.092Z,92.33
2023-01-03T03:16:16.095Z,92.33
2023-01-03T03:17:16.073Z,92.33
2023-01-03T03:18:16.037Z,92.54
2023-01-03T03:19:16.062Z,92.54
2023-01-03T03:20:15.999Z,92.64
2023-01-03T03:21:16.030Z,92.74
2023-01-03T03:22:16.072Z,92.95
2023-01-03T03:23:16.014Z,93.05
2023-01-03T03:24:15.960Z,93.05
2023-01-03T03:25:15.976Z,93.05
2023-01-03T03:26:15.935Z,93.05
2023-01-03T03:27:15.941Z,92.95
2023-01-03T03:28:15.902Z,92.74
2023-01-03T03:29:15.923Z,92.54
2023-01-03T03:30:15.895Z,92.54
2023-01-03T03:31:16.014Z,92.54
2023-01-03T03:32:15.869Z,92.54
2023-01-03T03:33:15.891Z,92.54
2023-01-03T03:34:15.860Z,92.44
2023-01-03T03:35:15.889Z,92.23
2023-01-03T03:36:15.844Z,92.13
2023-01-03T03:37:15.841Z,92.13
2023-01-03T03:38:15.801Z,92.13
2023-01-03T03:39:15.833Z,92.13
2023-01-03T03:40:15.832Z,92.02
2023-01-03T03:41:15.795Z,92.02
2023-01-03T03:42:15.924Z,92.13
2023-01-03T03:43:15.763Z,92.33
2023-01-03T03:44:15.750Z,92.33
2023-01-03T03:45:15.741Z,92.23
2023-01-03T03:46:15.767Z,92.02
2023-01-03T03:47:16.011Z,91.92
2023-01-03T03:48:15.686Z,91.82
2023-01-03T03:49:15.711Z,91.92
2023-01-03T03:50:15.674Z,92.02
2023-01-03T03:51:15.681Z,92.13
2023-01-03T03:52:15.674Z,92.13
2023-01-03T03:53:15.656Z,91.82
2023-01-03T03:54:15.618Z,91.71
2023-01-03T03:55:15.649Z,91.71
2023-01-03T03:56:15.588Z,91.61
2023-01-03T03:57:16.578Z,91.61
2023-01-03T03:58:15.577Z,91.71
2023-01-03T03:59:15.613Z,91.92
2023-01-03T04:00:15.556Z,92.02
2023-01-03T04:01:15.620Z,92.02
2023-01-03T04:02:15.673Z,92.02
2023-01-03T04:03:15.754Z,92.02
2023-01-03T04:04:15.520Z,91.92
2023-01-03T04:05:15.523Z,91.50
2023-01-03T04:06:15.492Z,91.30
2023-01-03T04:07:16.061Z,91.30
2023-01-03T04:08:15.470Z,91.40
2023-01-03T04:09:15.513Z,91.40
2023-01-03T04:10:15.450Z,91.40
2023-01-03T04:11:15.461Z,91.40
2023-01-03T04:12:15.409Z,91.40
2023-01-03T04:13:15.700Z,91.40
2023-01-03T04:14:15.397Z,91.61
2023-01-03T04:15:15.412Z,91.61
2023-01-03T04:16:15.462Z,91.71
2023-01-03T04:17:15.379Z,91.75
2023-01-03T04:18:15.349Z,91.92
2023-01-03T04:19:15.397Z,91.92
2023-01-03T04:20:15.332Z,91.71
2023-01-03T04:21:20.545Z,91.71
2023-01-03T04:22:16.308Z,91.71
2023-01-03T04:23:15.787Z,91.61
2023-01-03T04:24:15.279Z,91.61
2023-01-03T04:25:15.298Z,91.50
2023-01-03T04:26:15.273Z,91.50
2023-01-03T04:27:15.268Z,91.50
2023-01-03T04:28:15.248Z,91.61
2023-01-03T04:29:15.232Z,91.61
2023-01-03T04:30:15.259Z,91.71
2023-01-03T04:31:15.262Z,91.82
2023-01-03T04:32:15.250Z,92.02
2023-01-03T04:33:15.176Z,92.02
2023-01-03T04:34:15.187Z,92.02
2023-01-03T04:35:15.170Z,92.02
2023-01-03T04:36:15.179Z,92.02
2023-01-03T04:37:15.143Z,92.02
2023-01-03T04:38:15.158Z,92.02
2023-01-03T04:39:15.101Z,92.13
2023-01-03T04:40:15.136Z,92.13
2023-01-03T04:41:15.111Z,92.23
2023-01-03T04:42:15.123Z,92.33
2023-01-03T04:43:15.084Z,92.23
2023-01-03T04:44:15.071Z,92.33
2023-01-03T04:45:15.063Z,92.33
2023-01-03T04:46:15.192Z,92.23
2023-01-03T04:47:15.023Z,92.23
2023-01-03T04:48:15.068Z,92.23
2023-01-03T04:49:15.033Z,92.23
2023-01-03T04:50:14.995Z,92.23
2023-01-03T04:51:14.971Z,92.23
2023-01-03T04:52:15.006Z,92.13
2023-01-03T04:53:15.011Z,92.13
2023-01-03T04:54:14.968Z,92.13
2023-01-03T04:55:14.942Z,92.23
2023-01-03T04:56:14.950Z,92.33
2023-01-03T04:57:14.909Z,92.33
2023-01-03T04:58:14.920Z,92.44
2023-01-03T04:59:14.876Z,92.54
2023-01-03T05:00:14.953Z,92.54
2023-01-03T05:01:15.007Z,92.54
2023-01-03T05:02:15.004Z,92.64
2023-01-03T05:03:14.830Z,92.74
2023-01-03T05:04:14.888Z,92.74
2023-01-03T05:05:14.821Z,92.74
2023-01-03T05:06:15.066Z,92.85
2023-01-03T05:07:14.782Z,92.95
2023-01-03T05:08:14.831Z,92.95
2023-01-03T05:09:14.783Z,92.95
2023-01-03T05:10:14.777Z,93.05
2023-01-03T05:11:14.761Z,93.05
2023-01-03T05:12:14.770Z,93.05
2023-01-03T05:13:14.740Z,93.05
2023-01-03T05:14:14.982Z,92.99
2023-01-03T05:15:14.733Z,93.10
2023-01-03T05:16:14.825Z,93.10
2023-01-03T05:17:14.685Z,93.10
2023-01-03T05:18:14.717Z,93.30
2023-01-03T05:19:14.705Z,93.41
2023-01-03T05:20:14.693Z,93.51
2023-01-03T05:21:14.642Z,93.62
2023-01-03T05:22:14.708Z,93.72
2023-01-03T05:23:14.604Z,94.03
2023-01-03T05:24:14.640Z,94.13
2023-01-03T05:25:14.622Z,94.23
2023-01-03T05:26:14.610Z,94.23
2023-01-03T05:27:14.699Z,94.34
2023-01-03T05:28:17.439Z,94.44
2023-01-03T05:29:14.554Z,94.54
2023-01-03T05:30:14.576Z,94.65
2023-01-03T05:31:14.527Z,94.85
2023-01-03T05:32:14.604Z,94.96
2023-01-03T05:33:14.501Z,95.00
2023-01-03T05:34:14.505Z,95.10
2023-01-03T05:35:14.464Z,95.21
2023-01-03T05:36:16.446Z,95.21
2023-01-03T05:37:14.498Z,95.31
2023-01-03T05:38:14.484Z,95.31
2023-01-03T05:39:14.433Z,95.42
2023-01-03T05:40:14.424Z,95.42
2023-01-03T05:41:14.446Z,95.48
2023-01-03T05:42:14.438Z,95.48
2023-01-03T05:43:14.404Z,95.48
2023-01-03T05:44:14.393Z,95.48
2023-01-03T05:45:14.349Z,95.37
2023-01-03T05:46:14.430Z,95.37
2023-01-03T05:47:14.333Z,95.27
2023-01-03T05:48:14.355Z,95.27
2023-01-03T05:49:14.348Z,95.17
2023-01-03T05:50:14.316Z,95.06
2023-01-03T05:51:14.282Z,95.06
2023-01-03T05:52:14.315Z,94.96
2023-01-03T05:53:14.277Z,94.96
2023-01-03T05:54:14.308Z,94.85
2023-01-03T05:55:14.268Z,94.85
2023-01-03T05:56:14.250Z,94.85
2023-01-03T05:57:14.221Z,94.96
2023-01-03T05:58:14.249Z,94.96
2023-01-03T05:59:14.240Z,95.17
2023-01-03T06:00:14.412Z,95.27
2023-01-03T06:01:14.221Z,95.27
2023-01-03T06:02:14.384Z,95.37
2023-01-03T06:03:14.188Z,95.48
2023-01-03T06:04:14.271Z,95.48
2023-01-03T06:05:14.656Z,95.48
2023-01-03T06:06:14.369Z,95.57
2023-01-03T06:07:14.102Z,95.68
2023-01-03T06:08:14.144Z,95.68
2023-01-03T06:09:14.294Z,95.68
2023-01-03T06:10:14.127Z,95.78
2023-01-03T06:11:14.107Z,95.78
2023-01-03T06:12:14.140Z,95.89
2023-01-03T06:13:14.065Z,95.89
2023-01-03T06:14:14.052Z,95.99
2023-01-03T06:15:14.025Z,95.99
2023-01-03T06:16:14.071Z,96.09
2023-01-03T06:17:14.058Z,96.09
2023-01-03T06:18:14.037Z,96.09
2023-01-03T06:19:13.990Z,96.20
2023-01-03T06:20:13.996Z,96.20
2023-01-03T06:21:13.955Z,96.20
2023-01-03T06:22:13.984Z,96.20
2023-01-03T06:23:13.947Z,96.20
2023-01-03T06:24:13.963Z,96.30
2023-01-03T06:25:13.901Z,96.34
2023-01-03T06:26:13.931Z,96.34
2023-01-03T06:27:13.908Z,96.34
2023-01-03T06:28:13.897Z,96.34
2023-01-03T06:29:14.507Z,96.34
2023-01-03T06:30:13.913Z,96.34
2023-01-03T06:31:13.960Z,96.45
2023-01-03T06:32:13.885Z,96.45
2023-01-03T06:33:13.835Z,96.45
2023-01-03T06:34:13.830Z,96.45
2023-01-03T06:35:13.781Z,96.45
2023-01-03T06:36:13.835Z,96.45
2023-01-03T06:37:13.782Z,96.45
2023-01-03T06:38:13.782Z,96.55
2023-01-03T06:39:13.793Z,96.55
2023-01-03T06:40:13.767Z,96.55
2023-01-03T06:41:13.719Z,96.55
2023-01-03T06:42:13.738Z,96.55
2023-01-03T06:43:13.734Z,96.55
2023-01-03T06:44:13.703Z,96.66
2023-01-03T06:45:13.690Z,96.66
2023-01-03T06:46:14.054Z,96.66
2023-01-03T06:47:13.680Z,96.76
2023-01-03T06:48:13.681Z,96.76
2023-01-03T06:49:13.666Z,96.76
2023-01-03T06:50:13.654Z,96.76
2023-01-03T06:51:13.629Z,96.76
2023-01-03T06:52:13.621Z,96.76
2023-01-03T06:53:13.614Z,96.76
2023-01-03T06:54:13.633Z,96.76
2023-01-03T06:55:13.583Z,96.76
2023-01-03T06:56:13.570Z,96.76
2023-01-03T06:57:25.642Z,96.76
2023-01-03T06:58:14.575Z,96.76
2023-01-03T06:59:13.530Z,96.91
2023-01-03T07:00:13.552Z,96.91
2023-01-03T07:01:13.589Z,96.91
2023-01-03T07:02:13.682Z,96.91
2023-01-03T07:03:13.534Z,96.91
2023-01-03T07:04:13.560Z,96.91
2023-01-03T07:05:13.491Z,96.91
2023-01-03T07:06:13.482Z,96.85
2023-01-03T07:07:13.435Z,96.85
2023-01-03T07:08:13.456Z,96.75
2023-01-03T07:09:13.425Z,96.64
2023-01-03T07:10:13.418Z,96.69
2023-01-03T07:11:13.397Z,96.69
2023-01-03T07:12:13.399Z,96.79
2023-01-03T07:13:13.393Z,96.79
2023-01-03T07:14:13.391Z,96.73
2023-01-03T07:15:13.338Z,96.73
2023-01-03T07:16:13.405Z,96.73
2023-01-03T07:17:13.330Z,96.78
2023-01-03T07:18:13.356Z,96.88
2023-01-03T07:19:13.314Z,97.09
2023-01-03T07:20:13.340Z,97.19
2023-01-03T07:21:13.315Z,97.34
2023-01-03T07:22:13.349Z,97.44
2023-01-03T07:23:13.354Z,97.55
2023-01-03T07:24:13.308Z,97.65
2023-01-03T07:25:13.281Z,97.65
2023-01-03T07:26:13.249Z,97.69
2023-01-03T07:27:13.476Z,97.69
2023-01-03T07:28:13.375Z,97.69
2023-01-03T07:29:13.207Z,97.59
2023-01-03T07:30:13.221Z,97.74
2023-01-03T07:31:13.244Z,97.74
2023-01-03T07:32:13.189Z,97.74
2023-01-03T07:33:13.141Z,97.74
2023-01-03T07:34:13.172Z,97.85
2023-01-03T07:35:13.122Z,97.89
2023-01-03T07:36:13.204Z,97.89
2023-01-03T07:37:13.112Z,97.89
2023-01-03T07:38:13.110Z,97.99
2023-01-03T07:39:13.104Z,97.99
2023-01-03T07:40:13.088Z,97.99
2023-01-03T07:41:13.179Z,98.10
2023-01-03T07:42:13.087Z,98.24
2023-01-03T07:43:13.046Z,98.24
2023-01-03T07:44:13.058Z,98.24
2023-01-03T07:45:13.037Z,98.35
2023-01-03T07:46:13.069Z,98.35
2023-01-03T07:47:13.217Z,98.45
2023-01-03T07:48:13.216Z,98.55
2023-01-03T07:49:13.004Z,98.55
2023-01-03T07:50:13.002Z,98.66
2023-01-03T07:51:12.966Z,98.66
2023-01-03T07:52:12.955Z,98.71
2023-01-03T07:53:12.916Z,98.71
2023-01-03T07:54:12.984Z,98.71
2023-01-03T07:55:12.913Z,98.71
2023-01-03T07:56:13.685Z,98.71
2023-01-03T07:57:12.886Z,98.81
2023-01-03T07:58:12.916Z,98.91
2023-01-03T07:59:12.856Z,99.02
2023-01-03T08:00:12.884Z,99.02
2023-01-03T08:01:13.049Z,99.02
2023-01-03T08:02:12.989Z,99.02
2023-01-03T08:03:12.888Z,99.12
2023-01-03T08:04:12.847Z,99.12
2023-01-03T08:05:12.839Z,99.16
2023-01-03T08:06:12.856Z,99.16
2023-01-03T08:07:12.802Z,99.16
2023-01-03T08:08:12.844Z,99.16
2023-01-03T08:09:12.734Z,99.16
2023-01-03T08:10:12.743Z,99.16
2023-01-03T08:11:12.726Z,99.06
2023-01-03T08:12:12.776Z,99.16
2023-01-03T08:13:12.733Z,99.27
2023-01-03T08:14:12.704Z,99.37
2023-01-03T08:15:12.683Z,99.37
2023-01-03T08:16:12.735Z,99.48
2023-01-03T08:17:12.728Z,99.58
2023-01-03T08:18:12.674Z,99.58
2023-01-03T08:19:12.633Z,99.58
2023-01-03T08:20:12.660Z,99.58
2023-01-03T08:21:12.617Z,99.68
2023-01-03T08:22:12.602Z,99.68
2023-01-03T08:23:12.598Z,99.68
2023-01-03T08:24:12.650Z,99.74
2023-01-03T08:25:12.565Z,99.74
2023-01-03T08:26:12.593Z,99.74
2023-01-03T08:27:12.531Z,99.79
2023-01-03T08:28:12.550Z,99.79
2023-01-03T08:29:12.555Z,99.68
2023-01-03T08:30:12.543Z,99.68
2023-01-03T08:31:12.530Z,99.68
2023-01-03T08:32:12.509Z,99.68
2023-01-03T08:33:12.492Z,99.68
2023-01-03T08:34:18.459Z,99.68
2023-01-03T08:35:13.962Z,99.68
2023-01-03T08:36:12.467Z,99.68
2023-01-03T08:37:12.442Z,99.68
2023-01-03T08:38:12.461Z,99.68
2023-01-03T08:39:12.446Z,99.74
2023-01-03T08:40:12.423Z,99.74
2023-01-03T08:41:12.411Z,99.74
2023-01-03T08:42:12.404Z,99.74
2023-01-03T08:43:12.396Z,99.85
2023-01-03T08:44:12.376Z,99.91
2023-01-03T08:45:12.395Z,99.91
2023-01-03T08:46:12.342Z,99.86
2023-01-03T08:47:12.465Z,99.86
2023-01-03T08:48:12.307Z,99.86
2023-01-03T08:49:12.340Z,99.86
2023-01-03T08:50:12.529Z,99.86
2023-01-03T08:51:12.293Z,99.82
2023-01-03T08:52:12.310Z,99.82
2023-01-03T08:53:12.269Z,99.82
2023-01-03T08:54:12.246Z,99.87
2023-01-03T08:55:12.240Z,99.87
2023-01-03T08:56:12.227Z,99.87
2023-01-03T08:57:12.237Z,99.82
2023-01-03T08:58:12.193Z,99.82
2023-01-03T08:59:12.237Z,99.82
2023-01-03T09:00:12.171Z,99.72
2023-01-03T09:01:12.314Z,99.68
2023-01-03T09:02:12.319Z,99.57
2023-01-03T09:03:12.447Z,99.47
2023-01-03T09:04:12.164Z,99.37
2023-01-03T09:05:12.140Z,99.47
2023-01-03T09:06:12.122Z,99.32
2023-01-03T09:07:12.551Z,99.22
2023-01-03T09:08:12.295Z,99.11
2023-01-03T09:09:12.382Z,99.07
2023-01-03T09:10:12.258Z,98.96
2023-01-03T09:11:12.275Z,98.86
2023-01-03T09:12:12.092Z,98.86
2023-01-03T09:13:12.081Z,98.75
2023-01-03T09:14:12.011Z,98.61
2023-01-03T09:15:12.042Z,98.61
2023-01-03T09:16:12.072Z,98.61
2023-01-03T09:17:12.035Z,98.50
2023-01-03T09:18:11.983Z,98.25
2023-01-03T09:19:11.979Z,98.05
2023-01-03T09:20:11.958Z,97.74
2023-01-03T09:21:11.964Z,97.53
2023-01-03T09:22:11.946Z,97.22
2023-01-03T09:23:11.969Z,96.86
2023-01-03T09:24:11.932Z,96.66
2023-01-03T09:25:11.962Z,96.34
2023-01-03T09:26:11.877Z,95.94
2023-01-03T09:27:11.951Z,95.62
2023-01-03T09:28:11.876Z,95.21
2023-01-03T09:29:11.906Z,95.10
2023-01-03T09:30:11.865Z,94.79
2023-01-03T09:31:11.904Z,94.34
2023-01-03T09:32:11.861Z,94.03
2023-01-03T09:33:11.845Z,94.03
2023-01-03T09:34:11.817Z,93.93
2023-01-03T09:35:11.819Z,93.72
2023-01-03T09:36:11.799Z,93.37
2023-01-03T09:37:11.788Z,92.85
2023-01-03T09:38:11.780Z,92.54
2023-01-03T09:39:11.766Z,92.13
2023-01-03T09:40:11.726Z,92.02
2023-01-03T09:41:11.736Z,91.92
2023-01-03T09:42:11.704Z,91.92
2023-01-03T09:43:11.748Z,91.88
2023-01-03T09:44:11.695Z,91.67
2023-01-03T09:45:11.707Z,91.56
2023-01-03T09:46:11.661Z,91.56
2023-01-03T09:47:11.709Z,91.26
2023-01-03T09:48:12.616Z,90.95
2023-01-03T09:49:11.682Z,90.91
2023-01-03T09:50:29.532Z,90.91
2023-01-03T09:51:20.982Z,90.80
2023-01-03T09:52:12.657Z,90.39
2023-01-03T09:53:11.643Z,89.87
2023-01-03T09:54:11.588Z,89.56
2023-01-03T09:55:11.638Z,89.56
2023-01-03T09:56:11.565Z,89.62
2023-01-03T09:57:11.574Z,89.42
2023-01-03T09:58:11.525Z,88.90
2023-01-03T09:59:11.545Z,88.90
2023-01-03T10:00:11.531Z,88.90
2023-01-03T10:01:11.597Z,88.80
2023-01-03T10:02:11.733Z,88.70
2023-01-03T10:03:11.760Z,88.49
2023-01-03T10:04:11.476Z,88.39
2023-01-03T10:05:11.723Z,87.98
2023-01-03T10:06:11.445Z,87.93
2023-01-03T10:07:11.771Z,88.24
2023-01-03T10:08:11.475Z,88.35
2023-01-03T10:09:11.414Z,88.24
2023-01-03T10:10:14.398Z,88.24
2023-01-03T10:11:11.454Z,88.24
2023-01-03T10:12:11.389Z,88.45
2023-01-03T10:13:17.861Z,88.04
2023-01-03T10:14:12.360Z,87.83
2023-01-03T10:15:11.352Z,87.83
2023-01-03T10:16:11.373Z,87.99
2023-01-03T10:17:11.352Z,88.10
2023-01-03T10:18:11.313Z,87.59
2023-01-03T10:19:11.303Z,87.34
2023-01-03T10:20:11.280Z,87.13
2023-01-03T10:21:11.286Z,86.41
2023-01-03T10:22:11.263Z,86.47
2023-01-03T10:23:11.271Z,86.27
2023-01-03T10:24:11.227Z,85.55
2023-01-03T10:25:11.242Z,85.65
2023-01-03T10:26:11.212Z,85.61
2023-01-03T10:27:11.233Z,85.82
2023-01-03T10:28:11.196Z,86.13
2023-01-03T10:29:11.212Z,85.92
2023-01-03T10:30:11.966Z,85.82
2023-01-03T10:31:11.251Z,85.10
2023-01-03T10:32:11.275Z,85.20
2023-01-03T10:33:11.175Z,85.30
2023-01-03T10:34:11.132Z,85.61
2023-01-03T10:35:11.140Z,85.71
2023-01-03T10:36:11.093Z,85.20
2023-01-03T10:37:11.115Z,84.69
2023-01-03T10:38:11.097Z,84.99
2023-01-03T10:39:11.105Z,85.30
2023-01-03T10:40:11.146Z,85.10
2023-01-03T10:41:11.080Z,85.51
2023-01-03T10:42:11.031Z,85.57
2023-01-03T10:43:11.128Z,85.36
2023-01-03T10:44:11.011Z,85.53
2023-01-03T10:45:11.057Z,84.40
2023-01-03T10:46:11.030Z,84.16
2023-01-03T10:47:11.022Z,83.33
2023-01-03T10:48:11.031Z,82.99
2023-01-03T10:49:28.557Z,83.50
2023-01-03T10:50:11.932Z,83.50
2023-01-03T10:51:11.208Z,83.61
2023-01-03T10:52:11.119Z,82.47
2023-01-03T10:53:10.941Z,82.17
2023-01-03T10:54:10.920Z,82.17
2023-01-03T10:55:10.928Z,81.86
2023-01-03T10:56:10.870Z,82.27
2023-01-03T10:57:10.890Z,82.17
2023-01-03T10:58:10.909Z,82.37
2023-01-03T10:59:10.870Z,82.68
2023-01-03T11:00:10.839Z,82.37
2023-01-03T11:01:10.950Z,81.86
2023-01-03T11:02:11.041Z,81.76
2023-01-03T11:03:11.033Z,82.17
2023-01-03T11:04:10.843Z,81.96
2023-01-03T11:05:10.816Z,81.24
2023-01-03T11:06:10.794Z,81.55
2023-01-03T11:07:10.790Z,81.41
2023-01-03T11:08:10.761Z,81.71
2023-01-03T11:09:10.826Z,81.10
2023-01-03T11:10:10.729Z,80.76
2023-01-03T11:11:10.745Z,80.21
2023-01-03T11:12:10.834Z,80.00
2023-01-03T11:13:10.731Z,80.07
2023-01-03T11:14:10.720Z,79.96
2023-01-03T11:15:10.689Z,79.72
2023-01-03T11:16:10.725Z,78.90
2023-01-03T11:17:10.827Z,79.00
2023-01-03T11:18:10.631Z,78.08
2023-01-03T11:19:10.649Z,77.12
2023-01-03T11:20:10.663Z,76.72
2023-01-03T11:21:10.627Z,77.23
2023-01-03T11:22:10.609Z,77.53
2023-01-03T11:23:10.634Z,78.11
2023-01-03T11:24:10.575Z,77.70
2023-01-03T11:25:10.594Z,76.47
2023-01-03T11:26:10.599Z,76.47
2023-01-03T11:27:10.550Z,75.76
2023-01-03T11:28:15.965Z,75.48
2023-01-03T11:29:11.561Z,76.40
2023-01-03T11:30:10.488Z,77.16
2023-01-03T11:31:10.535Z,76.65
2023-01-03T11:32:10.753Z,76.85
2023-01-03T11:33:10.486Z,78.02
2023-01-03T11:34:10.521Z,78.12
2023-01-03T11:35:25.961Z,77.03
2023-01-03T11:36:11.419Z,78.16
2023-01-03T11:37:10.460Z,79.32
2023-01-03T11:38:10.416Z,79.32
2023-01-03T11:39:15.383Z,79.11
2023-01-03T11:40:11.408Z,79.93
2023-01-03T11:41:10.388Z,80.35
2023-01-03T11:42:10.396Z,80.62
2023-01-03T11:43:10.376Z,80.41
2023-01-03T11:44:10.333Z,79.80
2023-01-03T11:45:10.373Z,78.67
2023-01-03T11:46:10.393Z,79.08
2023-01-03T11:47:10.350Z,78.16
2023-01-03T11:48:10.287Z,78.25
2023-01-03T11:49:10.309Z,78.16
2023-01-03T11:50:10.295Z,78.22
2023-01-03T11:51:10.309Z,78.83
2023-01-03T11:52:10.262Z,78.53
2023-01-03T11:53:10.307Z,77.26
2023-01-03T11:54:10.292Z,76.95
2023-01-03T11:55:10.235Z,76.75
2023-01-03T11:56:10.236Z,77.16
2023-01-03T11:57:10.227Z,77.26
2023-01-03T11:58:10.229Z,76.54
2023-01-03T11:59:10.220Z,76.95
2023-01-03T12:00:10.150Z,76.24
2023-01-03T12:01:10.233Z,76.31
2023-01-03T12:02:10.325Z,75.79
2023-01-03T12:03:10.348Z,75.69
2023-01-03T12:04:10.175Z,74.97
2023-01-03T12:05:10.164Z,75.99
2023-01-03T12:06:10.125Z,75.93
2023-01-03T12:07:45.697Z,76.65
2023-01-03T12:08:11.057Z,76.92
2023-01-03T12:09:10.065Z,75.89
2023-01-03T12:10:10.069Z,75.69
2023-01-03T12:11:10.074Z,76.44
2023-01-03T12:12:10.040Z,76.75
2023-01-03T12:13:10.079Z,76.03
2023-01-03T12:14:10.079Z,77.09
2023-01-03T12:15:10.009Z,77.09
2023-01-03T12:16:10.123Z,77.40
2023-01-03T12:17:10.058Z,77.29
2023-01-03T12:18:10.058Z,76.68
2023-01-03T12:19:12.502Z,76.31
2023-01-03T12:20:09.976Z,76.31
2023-01-03T12:21:09.976Z,76.62
2023-01-03T12:22:09.959Z,77.23
2023-01-03T12:23:10.039Z,77.95
2023-01-03T12:24:09.977Z,78.16
2023-01-03T12:25:10.076Z,77.44
2023-01-03T12:26:09.877Z,77.54
2023-01-03T12:27:09.974Z,77.95
2023-01-03T12:28:10.489Z,77.64
2023-01-03T12:29:10.370Z,76.41
2023-01-03T12:30:09.911Z,77.13
2023-01-03T12:31:10.203Z,77.44
2023-01-03T12:32:09.898Z,77.54
2023-01-03T12:33:09.869Z,77.58
2023-01-03T12:34:09.891Z,77.47
2023-01-03T12:35:09.973Z,77.23
2023-01-03T12:36:09.918Z,77.44
2023-01-03T12:37:09.955Z,77.54
2023-01-03T12:38:09.826Z,76.82
2023-01-03T12:39:09.909Z,76.82
2023-01-03T12:40:09.798Z,76.10
2023-01-03T12:41:09.882Z,76.41
2023-01-03T12:42:09.756Z,76.41
2023-01-03T12:43:09.862Z,77.13
2023-01-03T12:44:10.640Z,76.92
2023-01-03T12:45:09.886Z,77.13
2023-01-03T12:46:12.952Z,77.03
2023-01-03T12:47:09.867Z,76.65
2023-01-03T12:48:09.812Z,76.75
2023-01-03T12:49:09.929Z,76.24
2023-01-03T12:50:09.617Z,76.75
2023-01-03T12:51:09.598Z,76.65
2023-01-03T12:52:15.028Z,77.06